Portada
METAR-TAF:

METAR-TAF

Aeroports :

Iași, Romania

latitud: 47-10N, longitud: 027-38E, altitud: 102 m

Observació

L'informe es va fer fa 22 minuts, a les 12:00 UTC
Vent 15 kt del Sud/Sud-Est
Temperatura 32°C
Humitat 20%
Pressió 1016 hPa
Visibilitat 10 km o més
sense núvols per sota de 1500 mi sense presència de cumulonimbus.

METAR: LRIA 111200Z 15015KT CAVOK 32/06 Q1016

Hora: 15:22 (12:22 UTC)

Pronòstic

L'informe es va fer fa 1 hora i 22 minuts, a les 11:00 UTC
Pronòstic vàlid del 11 a les 12 UTC al 11 a les 21 UTC
Vent 12 kt del Sud
Visibilitat 10 km o més
sense núvols per sota de 1500 mi sense presència de cumulonimbus.
Evolucionant progressivament
l' 11 a les 15 UTC al 11 a les 17 UTC
Vent 4 kt amb direcció variable

TAF: LRIA 111100Z 1112/1121 17012KT CAVOK BECMG 1115/1117 VRB04KT

Observacions i pronòstics meteorològics de més de 4000 aeroports (METAR i TAF).

Les estacions disponibles són els punts grocs i vermells al mapa.

Posi el ratolí al punt desitjat per veure el nom de l'estació.

Feu clic per veure les observacions i els pronòstics meteorològics.

Per canviar el mapa: feu clic els botons verds amb una creu de color negre per apropar; al botó verd amb un guió per allunyar la imatge; o en les fletxes verdes per a mapes adjacents.


METAR-TAF: